Time;durP1;ratioP1;P1;durP2;ratioP2;P2;SDS_P1;SDS_P2;PMS_P1;PMS_P2;Temp;Humidity;BMP_temperature;BMP_pressure;BME280_temperature;BME280_humidity;BME280_pressure;Samples;Min_cycle;Max_cycle;Signal;HPM_P1;HPM_P2
2022/07/02 00:01:10;;;;;;;;;;;21.50;57.00;;;;;;5124370;27;20447;-58
2022/07/02 00:03:36;;;;;;;;;;;21.60;56.60;;;;;;5128696;27;20382;-57
2022/07/02 00:06:02;;;;;;;;;;;21.50;56.50;;;;;;5123667;27;20060;-58
2022/07/02 00:08:28;;;;;;;;;;;21.60;56.10;;;;;;5124646;27;19923;-59
2022/07/02 00:10:54;;;;;;;;;;;21.50;56.10;;;;;;5129830;27;20402;-59
2022/07/02 00:13:20;;;;;;;;;;;21.60;55.90;;;;;;5124992;27;20108;-58
2022/07/02 00:15:46;;;;;;;;;;;21.60;55.80;;;;;;5130114;27;19927;-59
2022/07/02 00:18:12;;;;;;;;;;;21.60;55.50;;;;;;5124907;27;20982;-59
2022/07/02 00:20:38;;;;;;;;;;;21.60;55.40;;;;;;5124947;27;20042;-58
2022/07/02 00:23:04;;;;;;;;;;;21.70;55.40;;;;;;5127898;27;19923;-56
2022/07/02 00:25:33;;;;;;;;;;;21.70;55.20;;;;;;5123869;27;19938;-55
2022/07/02 00:27:59;;;;;;;;;;;21.70;55.10;;;;;;5124847;27;19979;-58
2022/07/02 00:30:24;;;;;;;;;;;21.80;54.90;;;;;;5094163;27;19968;-60
2022/07/02 00:32:50;;;;;;;;;;;21.80;54.70;;;;;;5125063;27;19931;-59
2022/07/02 00:35:16;;;;;;;;;;;21.80;54.70;;;;;;5129767;27;19923;-59
2022/07/02 00:37:42;;;;;;;;;;;21.70;54.80;;;;;;5124315;27;19923;-60
2022/07/02 00:40:08;;;;;;;;;;;21.80;54.60;;;;;;5123542;27;19934;-60
2022/07/02 00:42:36;;;;;;;;;;;21.80;54.50;;;;;;5128375;27;19927;-60
2022/07/02 00:45:02;;;;;;;;;;;21.70;54.60;;;;;;5123998;27;19923;-57
2022/07/02 00:47:28;;;;;;;;;;;21.80;54.60;;;;;;5124017;27;19975;-56
2022/07/02 00:49:54;;;;;;;;;;;21.80;54.40;;;;;;5110898;27;20371;-60
2022/07/02 00:52:20;;;;;;;;;;;21.80;54.50;;;;;;5124573;27;19927;-59
2022/07/02 00:54:46;;;;;;;;;;;21.80;54.30;;;;;;5126949;27;19929;-58
2022/07/02 00:57:12;;;;;;;;;;;21.80;54.40;;;;;;5125941;27;20435;-57
2022/07/02 00:59:37;;;;;;;;;;;21.80;54.40;;;;;;5123332;27;19931;-58
2022/07/02 01:02:06;;;;;;;;;;;21.80;54.40;;;;;;5128605;27;20014;-58
2022/07/02 01:04:32;;;;;;;;;;;21.80;54.40;;;;;;5124730;27;19932;-58
2022/07/02 01:07:02;;;;;;;;;;;21.80;54.40;;;;;;5124123;27;19923;-59
2022/07/02 01:12:33;;;;;;;;;;;21.70;54.40;;;;;;5041126;28;20438;-59
2022/07/02 01:14:58;;;;;;;;;;;21.70;54.40;;;;;;5040928;28;20137;-58
2022/07/02 01:17:24;;;;;;;;;;;21.80;54.30;;;;;;5083319;27;19923;-56
2022/07/02 01:19:50;;;;;;;;;;;21.80;54.20;;;;;;5123454;27;20329;-60
2022/07/02 01:22:17;;;;;;;;;;;21.80;54.20;;;;;;5124324;27;19932;-56
2022/07/02 01:24:43;;;;;;;;;;;21.80;54.20;;;;;;5128799;27;20010;-59
2022/07/02 01:27:09;;;;;;;;;;;21.80;54.10;;;;;;5123540;27;19927;-56
2022/07/02 01:29:35;;;;;;;;;;;21.80;54.00;;;;;;5126621;27;19931;-57
2022/07/02 01:32:01;;;;;;;;;;;21.70;54.10;;;;;;5125884;27;19924;-56
2022/07/02 01:34:27;;;;;;;;;;;21.70;54.20;;;;;;5123951;27;19929;-59
2022/07/02 01:36:52;;;;;;;;;;;21.70;54.00;;;;;;5126972;27;20410;-59
2022/07/02 01:39:24;;;;;;;;;;;21.70;54.00;;;;;;5123691;27;19924;-58
2022/07/02 01:41:50;;;;;;;;;;;21.80;54.00;;;;;;5122954;27;19936;-58
2022/07/02 01:44:16;;;;;;;;;;;21.80;54.00;;;;;;5128469;27;20371;-57
2022/07/02 01:46:43;;;;;;;;;;;21.30;52.80;;;;;;5103865;27;20295;-56
2022/07/02 01:49:08;;;;;;;;;;;21.20;51.60;;;;;;5125131;27;19928;-58
2022/07/02 01:51:34;;;;;;;;;;;21.10;51.10;;;;;;5128508;27;19924;-57
2022/07/02 01:54:00;;;;;;;;;;;21.20;53.50;;;;;;5122748;27;19928;-60
2022/07/02 01:56:26;;;;;;;;;;;21.30;54.50;;;;;;5127267;27;20206;-56
2022/07/02 01:58:51;;;;;;;;;;;21.30;54.70;;;;;;5123833;27;20371;-56
2022/07/02 02:01:17;;;;;;;;;;;21.50;54.60;;;;;;5124095;27;20290;-56
2022/07/02 02:03:43;;;;;;;;;;;21.40;54.70;;;;;;5128124;27;19924;-59
2022/07/02 02:06:09;;;;;;;;;;;21.50;54.60;;;;;;5123403;27;19931;-50
2022/07/02 02:08:35;;;;;;;;;;;21.50;54.60;;;;;;5090232;27;20169;-51
2022/07/02 02:11:01;;;;;;;;;;;21.50;54.60;;;;;;5127821;27;20379;-58
2022/07/02 02:13:26;;;;;;;;;;;21.50;54.40;;;;;;5122135;27;19931;-50
2022/07/02 02:15:53;;;;;;;;;;;21.60;54.40;;;;;;5110697;27;20014;-50
2022/07/02 02:18:18;;;;;;;;;;;21.70;54.30;;;;;;5125403;27;19950;-52
2022/07/02 02:20:44;;;;;;;;;;;21.70;54.20;;;;;;5124543;27;19924;-52
2022/07/02 02:23:10;;;;;;;;;;;21.70;54.10;;;;;;5128039;27;19978;-53
2022/07/02 02:25:36;;;;;;;;;;;21.70;54.00;;;;;;5106049;27;20290;-52
2022/07/02 02:28:01;;;;;;;;;;;21.60;54.20;;;;;;5125945;27;19923;-51
2022/07/02 02:30:28;;;;;;;;;;;21.60;54.20;;;;;;5109565;27;20010;-50
2022/07/02 02:32:53;;;;;;;;;;;21.60;54.20;;;;;;5125257;27;19930;-49
2022/07/02 02:35:19;;;;;;;;;;;21.60;54.00;;;;;;5109734;27;19924;-51
2022/07/02 02:37:45;;;;;;;;;;;21.70;54.00;;;;;;5108412;27;20006;-48
2022/07/02 02:40:11;;;;;;;;;;;21.80;53.80;;;;;;5126044;27;19939;-49
2022/07/02 02:42:37;;;;;;;;;;;21.80;53.70;;;;;;5110219;27;20011;-51
2022/07/02 02:45:03;;;;;;;;;;;21.80;53.70;;;;;;5126115;27;19930;-50
2022/07/02 02:47:28;;;;;;;;;;;21.80;53.70;;;;;;5108033;27;19931;-48
2022/07/02 02:49:54;;;;;;;;;;;21.70;53.70;;;;;;5127613;27;20423;-47
2022/07/02 02:52:20;;;;;;;;;;;21.60;53.80;;;;;;5126309;27;20399;-48
2022/07/02 02:54:47;;;;;;;;;;;21.60;54.00;;;;;;5092015;27;19934;-49
2022/07/02 02:57:13;;;;;;;;;;;21.70;54.00;;;;;;5127383;27;19959;-48
2022/07/02 02:59:39;;;;;;;;;;;21.70;53.90;;;;;;5108032;27;19993;-48
2022/07/02 03:02:05;;;;;;;;;;;21.80;53.70;;;;;;5093072;27;19997;-47
2022/07/02 03:04:31;;;;;;;;;;;21.80;53.40;;;;;;5107523;28;19924;-47
2022/07/02 03:06:58;;;;;;;;;;;21.80;53.40;;;;;;5090522;28;19942;-47
2022/07/02 03:09:24;;;;;;;;;;;21.80;53.30;;;;;;5109186;28;20364;-47
2022/07/02 03:11:49;;;;;;;;;;;21.80;53.20;;;;;;5088371;28;19923;-47
2022/07/02 03:14:15;;;;;;;;;;;21.80;53.30;;;;;;5106985;27;20280;-47
2022/07/02 03:16:41;;;;;;;;;;;21.80;53.50;;;;;;5127755;27;19923;-47
2022/07/02 03:19:07;;;;;;;;;;;21.80;53.60;;;;;;5073167;28;19927;-47
2022/07/02 03:21:34;;;;;;;;;;;21.70;53.70;;;;;;5111684;27;19962;-48
2022/07/02 03:24:01;;;;;;;;;;;21.80;53.70;;;;;;5111224;27;20014;-46
2022/07/02 03:26:27;;;;;;;;;;;21.80;53.60;;;;;;5108919;27;19935;-47
2022/07/02 03:28:54;;;;;;;;;;;21.90;53.40;;;;;;5112850;27;19930;-47
2022/07/02 03:31:22;;;;;;;;;;;21.80;53.40;;;;;;5110590;27;19923;-48
2022/07/02 03:33:48;;;;;;;;;;;21.80;53.10;;;;;;5110535;27;19923;-49
2022/07/02 03:36:14;;;;;;;;;;;21.80;53.20;;;;;;5113381;27;20313;-47
2022/07/02 03:38:40;;;;;;;;;;;21.80;53.20;;;;;;5108240;27;19934;-48
2022/07/02 03:41:09;;;;;;;;;;;21.80;53.30;;;;;;5112979;27;19971;-48
2022/07/02 03:43:35;;;;;;;;;;;21.70;53.40;;;;;;5128644;27;19931;-47
2022/07/02 03:46:01;;;;;;;;;;;21.80;53.50;;;;;;5127798;27;20302;-47
2022/07/02 03:48:27;;;;;;;;;;;21.80;53.40;;;;;;5131249;27;20048;-47
2022/07/02 03:50:53;;;;;;;;;;;21.80;53.10;;;;;;5128213;27;20353;-46
2022/07/02 03:53:19;;;;;;;;;;;21.50;51.80;;;;;;5127971;27;19935;-46
2022/07/02 03:55:44;;;;;;;;;;;21.30;50.50;;;;;;5131094;27;19975;-47
2022/07/02 03:58:10;;;;;;;;;;;21.20;50.70;;;;;;5108405;27;19924;-47
2022/07/02 04:00:36;;;;;;;;;;;21.40;52.60;;;;;;5108700;27;20275;-56
2022/07/02 04:03:02;;;;;;;;;;;21.40;53.40;;;;;;5127483;27;20279;-51
2022/07/02 04:05:28;;;;;;;;;;;21.50;53.40;;;;;;5124555;27;20008;-49
2022/07/02 04:07:54;;;;;;;;;;;21.50;53.50;;;;;;5129715;27;21108;-50
2022/07/02 04:10:20;;;;;;;;;;;21.40;53.60;;;;;;5106110;27;20278;-50
2022/07/02 04:12:45;;;;;;;;;;;21.50;53.60;;;;;;5124416;27;19927;-53
2022/07/02 04:15:11;;;;;;;;;;;21.50;53.50;;;;;;5127832;27;19927;-50
2022/07/02 04:17:37;;;;;;;;;;;21.60;53.40;;;;;;5124078;27;19932;-49
2022/07/02 04:20:03;;;;;;;;;;;21.70;53.30;;;;;;5123927;27;19956;-51
2022/07/02 04:22:29;;;;;;;;;;;21.70;53.30;;;;;;5127800;27;20283;-52
2022/07/02 04:24:55;;;;;;;;;;;21.70;53.10;;;;;;5123287;27;19930;-50
2022/07/02 04:27:20;;;;;;;;;;;21.80;52.90;;;;;;5110955;27;19923;-50
2022/07/02 04:29:46;;;;;;;;;;;21.80;52.90;;;;;;5123936;27;20030;-52
2022/07/02 04:32:12;;;;;;;;;;;21.70;53.10;;;;;;5123905;27;20368;-49
2022/07/02 04:34:38;;;;;;;;;;;21.70;53.20;;;;;;5129585;27;20743;-49
2022/07/02 04:37:04;;;;;;;;;;;21.70;53.30;;;;;;5124030;27;19932;-49
2022/07/02 04:39:29;;;;;;;;;;;21.80;53.40;;;;;;5122618;27;20156;-55
2022/07/02 04:41:55;;;;;;;;;;;21.80;53.30;;;;;;5128255;27;19923;-49
2022/07/02 04:44:21;;;;;;;;;;;21.90;53.00;;;;;;5105505;27;20388;-52
2022/07/02 04:46:47;;;;;;;;;;;21.90;52.90;;;;;;5129262;27;20018;-51
2022/07/02 04:49:12;;;;;;;;;;;22.00;52.80;;;;;;5123522;27;19923;-49
2022/07/02 04:51:38;;;;;;;;;;;21.90;52.80;;;;;;5123738;27;19927;-49
2022/07/02 04:54:04;;;;;;;;;;;21.90;52.80;;;;;;5129100;27;19923;-49
2022/07/02 04:56:30;;;;;;;;;;;21.90;52.70;;;;;;5123333;27;19927;-49
2022/07/02 04:58:55;;;;;;;;;;;21.90;52.90;;;;;;5121563;27;19935;-51
2022/07/02 05:01:23;;;;;;;;;;;21.80;53.00;;;;;;5128397;27;19930;-51
2022/07/02 05:03:50;;;;;;;;;;;21.90;52.90;;;;;;5123208;27;20014;-51
2022/07/02 05:06:16;;;;;;;;;;;21.90;52.90;;;;;;5128570;27;19923;-55
2022/07/02 05:08:42;;;;;;;;;;;22.00;52.90;;;;;;5123920;27;20003;-49
2022/07/02 05:11:08;;;;;;;;;;;22.00;52.80;;;;;;5123482;27;20378;-48
2022/07/02 05:13:33;;;;;;;;;;;22.10;52.60;;;;;;5128779;27;19930;-48
2022/07/02 05:15:59;;;;;;;;;;;22.00;52.60;;;;;;5121862;27;19927;-54
2022/07/02 05:18:25;;;;;;;;;;;22.00;52.70;;;;;;5122234;27;19927;-49
2022/07/02 05:20:51;;;;;;;;;;;21.90;52.70;;;;;;5128275;27;19933;-48
2022/07/02 05:23:17;;;;;;;;;;;22.00;52.80;;;;;;5122834;27;20869;-49
2022/07/02 05:25:42;;;;;;;;;;;21.90;52.80;;;;;;5126015;27;19946;-59
2022/07/02 05:28:08;;;;;;;;;;;22.00;52.60;;;;;;5125907;27;19966;-49
2022/07/02 05:30:34;;;;;;;;;;;22.10;52.60;;;;;;5123114;27;20026;-53
2022/07/02 05:33:00;;;;;;;;;;;22.10;52.60;;;;;;5128436;27;20299;-48
2022/07/02 05:35:26;;;;;;;;;;;22.10;52.60;;;;;;5120689;27;19973;-49
2022/07/02 05:37:51;;;;;;;;;;;22.00;53.00;;;;;;5121881;27;19950;-52
2022/07/02 05:40:17;;;;;;;;;;;22.00;53.30;;;;;;5109525;27;19930;-48
2022/07/02 05:42:43;;;;;;;;;;;22.00;53.10;;;;;;5122217;27;20271;-50
2022/07/02 05:45:10;;;;;;;;;;;22.10;52.90;;;;;;5122888;27;19927;-57
2022/07/02 05:47:35;;;;;;;;;;;22.10;52.80;;;;;;5128233;27;19995;-50
2022/07/02 05:50:01;;;;;;;;;;;22.20;52.80;;;;;;5122462;27;19976;-47
2022/07/02 05:52:27;;;;;;;;;;;22.10;52.70;;;;;;5126973;27;20018;-49
2022/07/02 05:54:53;;;;;;;;;;;22.10;52.60;;;;;;5121151;27;19927;-47
2022/07/02 05:57:19;;;;;;;;;;;22.10;52.20;;;;;;5122052;27;19930;-48
2022/07/02 05:59:44;;;;;;;;;;;21.70;50.60;;;;;;5127795;27;19923;-47
2022/07/02 06:02:10;;;;;;;;;;;21.50;49.80;;;;;;5122343;27;20375;-52
2022/07/02 06:04:36;;;;;;;;;;;21.50;50.00;;;;;;5122483;27;19930;-47
2022/07/02 06:09:46;;;;;;;;;;;21.70;53.10;;;;;;5122237;27;19923;-48
2022/07/02 06:12:12;;;;;;;;;;;21.80;53.40;;;;;;5122126;27;19924;-57
2022/07/02 06:14:38;;;;;;;;;;;21.80;53.40;;;;;;5125343;27;19985;-47
2022/07/02 06:17:04;;;;;;;;;;;21.90;53.40;;;;;;5121756;27;20063;-49
2022/07/02 06:19:29;;;;;;;;;;;22.00;53.30;;;;;;5127335;27;19950;-48
2022/07/02 06:21:55;;;;;;;;;;;22.00;53.30;;;;;;5121968;27;19924;-47
2022/07/02 06:24:21;;;;;;;;;;;22.10;53.10;;;;;;5122245;27;19935;-47
2022/07/02 06:26:47;;;;;;;;;;;22.10;53.00;;;;;;5127222;27;19930;-48
2022/07/02 06:29:12;;;;;;;;;;;22.10;53.00;;;;;;5120832;27;19977;-50
2022/07/02 06:31:38;;;;;;;;;;;22.10;53.10;;;;;;5120878;27;19977;-53
2022/07/02 06:34:04;;;;;;;;;;;22.10;53.30;;;;;;5126952;27;19938;-47
2022/07/02 06:36:30;;;;;;;;;;;22.10;53.10;;;;;;5121781;27;19927;-50
2022/07/02 06:38:56;;;;;;;;;;;22.20;52.90;;;;;;5127367;27;19931;-48
2022/07/02 06:44:06;;;;;;;;;;;22.20;52.50;;;;;;5121496;27;20394;-47
2022/07/02 06:46:32;;;;;;;;;;;22.20;52.20;;;;;;5127239;27;19923;-49
2022/07/02 06:48:58;;;;;;;;;;;22.20;52.30;;;;;;5119903;27;20022;-47
2022/07/02 06:51:24;;;;;;;;;;;22.10;52.40;;;;;;5120955;27;19928;-48
2022/07/02 06:53:50;;;;;;;;;;;22.10;52.40;;;;;;5126801;27;19953;-48
2022/07/02 06:56:15;;;;;;;;;;;22.10;52.50;;;;;;5120504;27;19924;-48
2022/07/02 06:58:41;;;;;;;;;;;22.00;52.70;;;;;;5122546;27;20332;-56
2022/07/02 07:01:07;;;;;;;;;;;22.20;52.50;;;;;;5126503;27;20010;-49
2022/07/02 07:03:33;;;;;;;;;;;22.20;52.40;;;;;;5121415;27;19923;-48
2022/07/02 07:05:58;;;;;;;;;;;22.20;52.20;;;;;;5125531;27;20013;-51
2022/07/02 07:08:24;;;;;;;;;;;22.20;52.10;;;;;;5119998;27;19923;-49
2022/07/02 07:10:50;;;;;;;;;;;22.20;52.10;;;;;;5120874;28;20014;-47
2022/07/02 07:13:16;;;;;;;;;;;22.10;52.30;;;;;;5126651;28;19954;-47
2022/07/02 07:15:41;;;;;;;;;;;22.10;52.20;;;;;;5121688;28;20025;-49
2022/07/02 07:18:07;;;;;;;;;;;22.20;52.00;;;;;;5102792;28;20370;-48
2022/07/02 07:20:35;;;;;;;;;;;22.20;51.90;;;;;;5126836;28;20007;-48
2022/07/02 07:23:00;;;;;;;;;;;22.20;51.70;;;;;;5121098;28;19930;-48
2022/07/02 07:25:27;;;;;;;;;;;22.30;51.60;;;;;;5124754;28;20232;-47
2022/07/02 07:27:52;;;;;;;;;;;22.20;51.80;;;;;;5120518;28;19928;-48
2022/07/02 07:30:18;;;;;;;;;;;22.20;51.80;;;;;;5121013;28;20294;-47
2022/07/02 07:32:44;;;;;;;;;;;22.20;51.70;;;;;;5126298;27;20425;-51
2022/07/02 07:35:10;;;;;;;;;;;22.20;51.50;;;;;;5121106;28;19923;-51
2022/07/02 07:37:36;;;;;;;;;;;22.30;51.30;;;;;;5121666;28;19985;-47
2022/07/02 07:40:03;;;;;;;;;;;22.00;50.60;;;;;;5126511;27;19927;-51
2022/07/02 07:42:28;;;;;;;;;;;20.20;52.70;;;;;;5120275;28;20301;-52
2022/07/02 07:44:54;;;;;;;;;;;19.60;54.10;;;;;;5125245;28;19924;-51
2022/07/02 07:47:20;;;;;;;;;;;20.30;56.70;;;;;;5120600;28;19927;-49
2022/07/02 07:49:46;;;;;;;;;;;21.10;54.50;;;;;;5120593;28;19924;-49
2022/07/02 07:52:12;;;;;;;;;;;21.50;52.90;;;;;;5126281;28;19931;-50
2022/07/02 07:54:37;;;;;;;;;;;21.80;52.10;;;;;;5120880;28;19923;-51
2022/07/02 07:57:04;;;;;;;;;;;21.70;51.90;;;;;;5121012;28;19923;-52
2022/07/02 07:59:29;;;;;;;;;;;21.80;51.70;;;;;;5126302;28;20377;-48
2022/07/02 08:01:55;;;;;;;;;;;21.80;51.40;;;;;;5119036;28;19923;-49
2022/07/02 08:04:21;;;;;;;;;;;21.80;50.40;;;;;;5124911;28;20363;-59
2022/07/02 08:06:47;;;;;;;;;;;21.50;48.40;;;;;;5122518;27;20385;-51
2022/07/02 08:09:12;;;;;;;;;;;21.40;47.60;;;;;;5124606;27;19927;-48
2022/07/02 08:11:38;;;;;;;;;;;21.50;49.00;;;;;;5130014;27;19930;-55
2022/07/02 08:14:04;;;;;;;;;;;21.70;50.00;;;;;;5124720;27;19927;-48
2022/07/02 08:16:30;;;;;;;;;;;21.80;50.30;;;;;;5124315;27;19930;-49
2022/07/02 08:18:56;;;;;;;;;;;21.80;50.80;;;;;;5129453;27;19923;-51
2022/07/02 08:21:22;;;;;;;;;;;21.80;50.80;;;;;;5122785;27;20347;-49
2022/07/02 08:23:48;;;;;;;;;;;21.90;50.80;;;;;;5125971;27;19927;-57
2022/07/02 08:26:14;;;;;;;;;;;21.90;50.70;;;;;;5127533;27;19977;-49
2022/07/02 08:28:39;;;;;;;;;;;22.00;50.40;;;;;;5124117;27;19975;-50
2022/07/02 08:31:05;;;;;;;;;;;22.10;50.20;;;;;;5129506;27;19924;-51
2022/07/02 08:33:31;;;;;;;;;;;22.10;49.90;;;;;;5124391;27;20612;-50
2022/07/02 08:35:57;;;;;;;;;;;22.20;49.70;;;;;;5124126;27;19924;-49
2022/07/02 08:38:22;;;;;;;;;;;22.10;49.80;;;;;;5127903;27;20008;-52
2022/07/02 08:40:48;;;;;;;;;;;22.10;50.30;;;;;;5122796;27;19927;-48
2022/07/02 08:43:14;;;;;;;;;;;22.10;50.40;;;;;;5123778;27;19931;-56
2022/07/02 08:45:42;;;;;;;;;;;22.20;50.00;;;;;;5108642;27;21429;-52
2022/07/02 08:48:08;;;;;;;;;;;22.20;49.80;;;;;;5123819;27;19923;-52
2022/07/02 08:50:34;;;;;;;;;;;22.20;49.60;;;;;;5129263;27;19927;-51
2022/07/02 08:53:00;;;;;;;;;;;22.30;49.30;;;;;;5123923;27;19923;-54
2022/07/02 08:55:26;;;;;;;;;;;21.40;50.20;;;;;;5123794;27;19930;-46
2022/07/02 08:57:52;;;;;;;;;;;20.00;53.90;;;;;;5127314;27;19930;-45
2022/07/02 09:00:19;;;;;;;;;;;21.00;53.40;;;;;;5122860;27;20005;-48
2022/07/02 09:02:44;;;;;;;;;;;21.60;51.80;;;;;;5123120;27;20031;-50
2022/07/02 09:05:11;;;;;;;;;;;21.80;51.20;;;;;;5108625;27;19923;-45
2022/07/02 09:07:37;;;;;;;;;;;21.90;51.00;;;;;;5104436;27;19927;-49
2022/07/02 09:10:02;;;;;;;;;;;22.00;50.40;;;;;;5128904;27;20351;-46
2022/07/02 09:12:28;;;;;;;;;;;22.00;50.20;;;;;;5123274;27;20329;-46
2022/07/02 09:14:54;;;;;;;;;;;22.10;49.70;;;;;;5103754;27;19923;-45
2022/07/02 09:17:20;;;;;;;;;;;22.20;49.60;;;;;;5109186;27;19931;-47
2022/07/02 09:19:46;;;;;;;;;;;22.10;49.70;;;;;;5121988;27;19934;-45
2022/07/02 09:22:12;;;;;;;;;;;22.20;49.60;;;;;;5123109;27;19923;-46
2022/07/02 09:24:39;;;;;;;;;;;22.30;49.30;;;;;;5128632;27;19924;-47
2022/07/02 09:27:05;;;;;;;;;;;22.20;49.10;;;;;;5104215;27;20332;-48
2022/07/02 09:29:47;;;;;;;;;;;22.30;48.80;;;;;;5127129;27;19923;-55
2022/07/02 09:32:13;;;;;;;;;;;22.20;49.00;;;;;;5128189;27;19923;-49
2022/07/02 09:34:43;;;;;;;;;;;22.20;49.10;;;;;;5121095;27;19924;-45
2022/07/02 09:37:18;;;;;;;;;;;22.20;49.40;;;;;;5127868;27;20012;-49
2022/07/02 09:39:44;;;;;;;;;;;22.30;49.40;;;;;;5125202;27;20105;-52
2022/07/02 09:42:10;;;;;;;;;;;21.40;49.10;;;;;;5104190;27;19930;-51
2022/07/02 09:44:46;;;;;;;;;;;20.00;50.80;;;;;;5127971;27;19927;-46
2022/07/02 09:47:12;;;;;;;;;;;20.30;51.30;;;;;;5122608;27;20014;-47
2022/07/02 09:49:58;;;;;;;;;;;21.30;49.40;;;;;;5122332;27;20559;-52
2022/07/02 09:52:23;;;;;;;;;;;21.80;48.30;;;;;;5125456;27;19932;-50
2022/07/02 09:54:49;;;;;;;;;;;21.90;48.10;;;;;;5103432;27;19927;-48
2022/07/02 09:57:15;;;;;;;;;;;22.00;48.30;;;;;;5122195;27;19940;-44
2022/07/02 09:59:41;;;;;;;;;;;22.00;48.50;;;;;;5127569;27;19972;-46
2022/07/02 10:02:20;;;;;;;;;;;22.10;48.50;;;;;;5122165;27;20362;-45
2022/07/02 10:04:46;;;;;;;;;;;22.10;48.50;;;;;;5122434;27;20263;-45
2022/07/02 10:07:12;;;;;;;;;;;22.20;48.30;;;;;;5109115;27;19924;-45
2022/07/02 10:09:39;;;;;;;;;;;22.20;47.80;;;;;;5121017;27;20023;-45
2022/07/02 10:12:06;;;;;;;;;;;21.90;46.70;;;;;;5105910;27;19928;-53
2022/07/02 10:14:31;;;;;;;;;;;21.80;45.70;;;;;;5122962;27;20420;-45
2022/07/02 10:16:57;;;;;;;;;;;21.70;45.70;;;;;;5121841;27;19939;-45
2022/07/02 10:19:23;;;;;;;;;;;21.90;47.40;;;;;;5108883;27;19923;-49
2022/07/02 10:21:49;;;;;;;;;;;22.00;47.70;;;;;;5121887;27;19959;-48
2022/07/02 10:24:14;;;;;;;;;;;22.10;47.50;;;;;;5122172;27;19924;-45
2022/07/02 10:26:40;;;;;;;;;;;22.20;47.10;;;;;;5127364;27;19972;-47
2022/07/02 10:29:06;;;;;;;;;;;22.30;46.00;;;;;;5101391;27;20203;-49
2022/07/02 10:31:34;;;;;;;;;;;20.90;47.40;;;;;;5103049;27;19961;-55
2022/07/02 10:34:05;;;;;;;;;;;20.10;49.40;;;;;;5107379;27;19930;-44
2022/07/02 10:36:31;;;;;;;;;;;19.90;50.40;;;;;;5121555;27;20282;-48
2022/07/02 10:38:57;;;;;;;;;;;21.00;48.50;;;;;;5108717;27;19927;-48
2022/07/02 10:41:24;;;;;;;;;;;21.60;47.60;;;;;;5121813;27;20064;-50
2022/07/02 10:43:50;;;;;;;;;;;21.80;47.40;;;;;;5121864;27;19923;-44
2022/07/02 10:46:16;;;;;;;;;;;21.90;47.40;;;;;;5126274;27;20336;-47
2022/07/02 10:48:48;;;;;;;;;;;22.00;47.20;;;;;;5120336;27;19923;-49
2022/07/02 10:51:30;;;;;;;;;;;22.00;47.20;;;;;;5121337;27;20255;-49
2022/07/02 10:53:59;;;;;;;;;;;22.10;47.10;;;;;;5090226;27;20018;-46
2022/07/02 10:56:29;;;;;;;;;;;22.20;47.00;;;;;;5121588;27;20026;-45
2022/07/02 10:58:54;;;;;;;;;;;22.20;47.20;;;;;;5121984;27;20018;-48
2022/07/02 11:01:21;;;;;;;;;;;22.20;47.20;;;;;;5127081;27;20385;-46
2022/07/02 11:03:51;;;;;;;;;;;22.20;47.20;;;;;;5121721;27;19923;-48
2022/07/02 11:06:20;;;;;;;;;;;22.30;46.90;;;;;;5124444;27;19927;-54
2022/07/02 11:08:48;;;;;;;;;;;22.30;46.40;;;;;;5123322;27;19938;-48
2022/07/02 11:11:19;;;;;;;;;;;21.50;46.90;;;;;;5120922;27;20034;-47
2022/07/02 11:13:46;;;;;;;;;;;20.30;49.90;;;;;;5126615;28;19958;-47
2022/07/02 11:16:18;;;;;;;;;;;20.00;50.10;;;;;;5121363;28;19960;-48
2022/07/02 11:18:45;;;;;;;;;;;20.50;50.20;;;;;;5121230;27;20298;-46
2022/07/02 11:21:11;;;;;;;;;;;21.30;48.60;;;;;;5126571;28;19926;-46
2022/07/02 11:23:38;;;;;;;;;;;21.70;47.80;;;;;;5119381;28;19923;-46
2022/07/02 11:26:03;;;;;;;;;;;21.80;47.40;;;;;;5119780;27;20588;-45
2022/07/02 11:28:29;;;;;;;;;;;21.90;47.20;;;;;;5126132;28;20172;-44
2022/07/02 11:30:58;;;;;;;;;;;22.00;47.10;;;;;;5121060;28;20543;-44
2022/07/02 11:33:24;;;;;;;;;;;22.10;47.00;;;;;;5125227;27;20355;-50
2022/07/02 11:35:52;;;;;;;;;;;22.20;46.70;;;;;;5122581;27;19927;-44
2022/07/02 11:38:19;;;;;;;;;;;22.20;46.60;;;;;;5102106;28;19943;-45
2022/07/02 11:40:44;;;;;;;;;;;22.30;46.40;;;;;;5126248;27;20025;-47
2022/07/02 11:43:14;;;;;;;;;;;22.20;46.60;;;;;;5122555;27;19923;-47
2022/07/02 11:45:47;;;;;;;;;;;22.30;45.50;;;;;;5124543;27;19976;-47
2022/07/02 11:48:19;;;;;;;;;;;20.80;47.90;;;;;;5130221;27;20027;-48
2022/07/02 11:50:53;;;;;;;;;;;20.00;49.60;;;;;;5124774;27;19991;-46
2022/07/02 11:53:19;;;;;;;;;;;20.80;49.10;;;;;;5124711;27;19979;-48
2022/07/02 11:55:45;;;;;;;;;;;21.50;47.20;;;;;;5130659;27;19923;-45
2022/07/02 11:58:10;;;;;;;;;;;22.00;46.20;;;;;;5124674;27;20271;-50
2022/07/02 12:00:36;;;;;;;;;;;22.00;46.20;;;;;;5124623;27;19923;-53
2022/07/02 12:03:08;;;;;;;;;;;22.00;46.40;;;;;;5127941;27;19923;-46
2022/07/02 12:05:34;;;;;;;;;;;22.30;46.00;;;;;;5105004;27;19923;-44
2022/07/02 12:08:00;;;;;;;;;;;22.30;46.00;;;;;;5129857;27;19927;-46
2022/07/02 12:10:26;;;;;;;;;;;22.30;45.90;;;;;;5124591;27;20482;-45
2022/07/02 12:12:52;;;;;;;;;;;22.30;45.90;;;;;;5124787;27;19931;-53
2022/07/02 12:15:18;;;;;;;;;;;22.30;45.60;;;;;;5130171;27;20554;-49
2022/07/02 12:17:49;;;;;;;;;;;20.70;48.90;;;;;;5124155;27;19924;-47
2022/07/02 12:20:16;;;;;;;;;;;21.30;46.30;;;;;;5122935;27;19931;-47
2022/07/02 12:22:41;;;;;;;;;;;21.50;45.10;;;;;;5129119;27;20294;-47
2022/07/02 12:25:07;;;;;;;;;;;21.80;46.30;;;;;;5124088;27;19931;-48
2022/07/02 12:27:34;;;;;;;;;;;22.00;46.20;;;;;;5129176;27;19934;-52
2022/07/02 12:30:12;;;;;;;;;;;22.00;46.60;;;;;;5125109;27;19931;-47
2022/07/02 12:32:39;;;;;;;;;;;22.20;46.40;;;;;;5124204;27;20080;-52
2022/07/02 12:35:08;;;;;;;;;;;22.20;46.20;;;;;;5129540;27;19930;-47
2022/07/02 12:37:35;;;;;;;;;;;22.20;46.20;;;;;;5122185;27;20018;-49
2022/07/02 12:40:06;;;;;;;;;;;22.30;45.90;;;;;;5123662;27;19923;-52
2022/07/02 12:42:33;;;;;;;;;;;21.80;45.50;;;;;;5129292;27;19928;-47
2022/07/02 12:45:00;;;;;;;;;;;20.40;48.30;;;;;;5124260;27;19927;-52
2022/07/02 12:47:26;;;;;;;;;;;20.10;48.60;;;;;;5105851;27;20185;-45
2022/07/02 12:49:53;;;;;;;;;;;20.80;48.30;;;;;;5111341;27;19927;-50
2022/07/02 12:52:19;;;;;;;;;;;21.60;46.70;;;;;;5105644;27;20042;-45
2022/07/02 12:54:44;;;;;;;;;;;21.80;46.30;;;;;;5125962;27;19970;-53
2022/07/02 12:57:17;;;;;;;;;;;22.00;46.10;;;;;;5124755;27;20957;-53
2022/07/02 12:59:43;;;;;;;;;;;22.10;45.90;;;;;;5123000;27;19923;-48
2022/07/02 13:02:12;;;;;;;;;;;22.10;45.90;;;;;;5128907;27;20007;-52
2022/07/02 13:04:38;;;;;;;;;;;22.20;45.90;;;;;;5123573;27;19934;-50
2022/07/02 13:07:04;;;;;;;;;;;22.20;46.00;;;;;;5123460;27;19947;-48
2022/07/02 13:09:30;;;;;;;;;;;22.30;46.00;;;;;;5128603;27;19930;-53
2022/07/02 13:11:55;;;;;;;;;;;22.30;45.90;;;;;;5123325;27;19970;-51
2022/07/02 13:14:21;;;;;;;;;;;22.20;46.30;;;;;;5121659;27;19950;-48
2022/07/02 13:16:47;;;;;;;;;;;22.30;46.10;;;;;;5128265;27;20011;-48
2022/07/02 13:19:13;;;;;;;;;;;22.30;46.20;;;;;;5123463;27;20058;-51
2022/07/02 13:21:39;;;;;;;;;;;20.80;49.30;;;;;;5128490;27;20441;-48
2022/07/02 13:24:05;;;;;;;;;;;20.30;50.60;;;;;;5123775;27;19927;-46
2022/07/02 13:26:31;;;;;;;;;;;20.00;51.70;;;;;;5124043;27;20379;-51
2022/07/02 13:28:57;;;;;;;;;;;21.00;50.90;;;;;;5129482;27;20386;-46
2022/07/02 13:31:22;;;;;;;;;;;21.50;49.30;;;;;;5123339;27;19924;-48
2022/07/02 13:33:48;;;;;;;;;;;21.80;48.40;;;;;;5121251;27;20387;-49
2022/07/02 13:36:14;;;;;;;;;;;22.00;47.90;;;;;;5127890;27;20424;-52
2022/07/02 13:38:40;;;;;;;;;;;22.10;47.60;;;;;;5122649;27;19928;-52
2022/07/02 13:41:06;;;;;;;;;;;22.10;47.30;;;;;;5109429;27;19988;-57
2022/07/02 13:43:31;;;;;;;;;;;22.30;47.00;;;;;;5123220;27;19962;-49
2022/07/02 13:45:57;;;;;;;;;;;22.30;46.80;;;;;;5122890;27;19934;-49
2022/07/02 13:48:23;;;;;;;;;;;22.30;46.90;;;;;;5128331;27;19946;-47
2022/07/02 13:50:49;;;;;;;;;;;22.20;47.10;;;;;;5122144;27;19975;-47
2022/07/02 13:53:14;;;;;;;;;;;20.70;51.00;;;;;;5122739;27;20039;-50
2022/07/02 13:55:40;;;;;;;;;;;20.30;51.80;;;;;;5128387;27;19927;-50
2022/07/02 13:58:06;;;;;;;;;;;20.50;52.50;;;;;;5123757;27;19927;-47
2022/07/02 14:00:32;;;;;;;;;;;21.30;51.20;;;;;;5125636;27;19939;-52
2022/07/02 14:02:58;;;;;;;;;;;21.80;49.50;;;;;;5106560;27;19983;-47
2022/07/02 14:05:24;;;;;;;;;;;22.00;48.80;;;;;;5121733;27;19976;-47
2022/07/02 14:07:49;;;;;;;;;;;22.10;48.50;;;;;;5127352;27;19979;-49
2022/07/02 14:10:15;;;;;;;;;;;22.20;48.30;;;;;;5120377;27;20352;-51
2022/07/02 14:12:41;;;;;;;;;;;22.30;48.10;;;;;;5121435;27;20355;-48
2022/07/02 14:15:07;;;;;;;;;;;22.30;48.00;;;;;;5127311;27;19966;-47
2022/07/02 14:17:33;;;;;;;;;;;22.30;47.80;;;;;;5122247;27;20398;-51
2022/07/02 14:19:59;;;;;;;;;;;22.30;47.70;;;;;;5122992;27;19923;-56